Time;durP1;ratioP1;P1;durP2;ratioP2;P2;SDS_P1;SDS_P2;PMS_P1;PMS_P2;Temp;Humidity;BMP_temperature;BMP_pressure;BME280_temperature;BME280_humidity;BME280_pressure;Samples;Min_cycle;Max_cycle;Signal;HPM_P1;HPM_P2
2023/04/12 00:00:10;;;;;;;45.97;7.88;;;;;;;;;;5146123;27;20029;-40
2023/04/12 00:02:37;;;;;;;31.60;6.90;;;;;;;;;;5136764;27;20068;-39
2023/04/12 00:05:04;;;;;;;31.15;7.10;;;;;;;;;;5137165;27;20023;-41
2023/04/12 00:07:32;;;;;;;29.48;7.28;;;;;;;;;;5140320;27;20031;-40
2023/04/12 00:09:59;;;;;;;40.47;7.22;;;;;;;;;;5138798;27;20507;-39
2023/04/12 00:12:26;;;;;;;33.70;7.00;;;;;;;;;;5141875;27;20025;-41
2023/04/12 00:14:53;;;;;;;34.22;7.05;;;;;;;;;;5143226;27;20125;-37
2023/04/12 00:17:20;;;;;;;32.30;6.55;;;;;;;;;;5142110;27;20096;-38
2023/04/12 00:19:48;;;;;;;37.72;5.90;;;;;;;;;;5144059;27;20038;-39
2023/04/12 00:22:15;;;;;;;29.02;6.28;;;;;;;;;;5137359;27;20047;-38
2023/04/12 00:24:43;;;;;;;27.25;6.68;;;;;;;;;;5130451;27;20030;-37
2023/04/12 00:27:10;;;;;;;27.17;6.05;;;;;;;;;;5138401;27;20054;-42
2023/04/12 00:29:37;;;;;;;29.85;6.32;;;;;;;;;;5139830;27;20448;-39
2023/04/12 00:32:04;;;;;;;29.27;5.57;;;;;;;;;;5141183;27;20114;-39
2023/04/12 00:34:31;;;;;;;25.70;6.78;;;;;;;;;;5141231;27;20077;-38
2023/04/12 00:36:58;;;;;;;26.38;6.38;;;;;;;;;;5141607;27;20023;-38
2023/04/12 00:39:26;;;;;;;38.42;8.10;;;;;;;;;;5147542;27;20038;-39
2023/04/12 00:41:55;;;;;;;40.03;8.95;;;;;;;;;;5139472;27;20050;-39
2023/04/12 00:44:23;;;;;;;48.58;11.90;;;;;;;;;;5141756;27;20032;-38
2023/04/12 00:46:50;;;;;;;50.67;12.25;;;;;;;;;;5151332;27;20669;-39
2023/04/12 00:49:17;;;;;;;59.33;14.00;;;;;;;;;;5153271;27;20027;-37
2023/04/12 00:51:44;;;;;;;46.55;13.50;;;;;;;;;;5139155;27;20136;-37
2023/04/12 00:54:11;;;;;;;62.03;14.45;;;;;;;;;;5140107;27;20505;-38
2023/04/12 00:56:39;;;;;;;65.38;15.23;;;;;;;;;;5150746;27;20022;-37
2023/04/12 00:59:09;;;;;;;44.90;14.60;;;;;;;;;;5149303;27;20231;-35
2023/04/12 01:01:37;;;;;;;59.40;15.95;;;;;;;;;;5138273;27;20555;-35
2023/04/12 01:04:04;;;;;;;58.10;16.15;;;;;;;;;;5152479;27;20429;-37
2023/04/12 01:06:32;;;;;;;58.30;15.27;;;;;;;;;;5135501;27;20045;-37
2023/04/12 01:08:59;;;;;;;61.97;16.20;;;;;;;;;;5132273;27;20676;-36
2023/04/12 01:11:31;;;;;;;56.60;15.52;;;;;;;;;;5132576;27;20059;-37
2023/04/12 01:14:01;;;;;;;58.90;14.73;;;;;;;;;;5132556;27;20023;-37
2023/04/12 01:16:30;;;;;;;50.75;13.80;;;;;;;;;;5132196;27;20061;-37
2023/04/12 01:19:02;;;;;;;49.47;13.40;;;;;;;;;;5132346;27;20152;-39
2023/04/12 01:21:49;;;;;;;43.55;12.50;;;;;;;;;;5131450;27;20047;-36
2023/04/12 01:24:35;;;;;;;46.40;11.65;;;;;;;;;;5101163;27;20066;-36
2023/04/12 01:27:03;;;;;;;33.88;10.38;;;;;;;;;;5132613;27;20031;-36
2023/04/12 01:29:30;;;;;;;37.67;10.27;;;;;;;;;;5131442;27;20076;-38
2023/04/12 01:32:02;;;;;;;34.35;10.68;;;;;;;;;;5130826;27;20070;-39
2023/04/12 01:34:30;;;;;;;40.08;11.43;;;;;;;;;;5132061;27;20469;-37
2023/04/12 01:36:58;;;;;;;36.85;10.82;;;;;;;;;;5135174;27;20026;-36
2023/04/12 01:39:26;;;;;;;35.92;9.95;;;;;;;;;;5141862;27;20037;-36
2023/04/12 01:41:53;;;;;;;39.75;10.60;;;;;;;;;;5131726;27;20105;-38
2023/04/12 01:44:20;;;;;;;38.90;9.95;;;;;;;;;;5138957;27;20019;-38
2023/04/12 01:46:48;;;;;;;37.65;10.18;;;;;;;;;;5148966;27;20019;-38
2023/04/12 01:49:16;;;;;;;34.95;9.82;;;;;;;;;;5135645;27;20027;-38
2023/04/12 01:51:49;;;;;;;32.72;8.75;;;;;;;;;;5134697;27;20438;-39
2023/04/12 01:54:22;;;;;;;32.72;8.60;;;;;;;;;;5134236;27;20454;-39
2023/04/12 01:56:50;;;;;;;27.65;8.25;;;;;;;;;;5141081;27;20033;-39
2023/04/12 01:59:18;;;;;;;29.40;8.07;;;;;;;;;;5145594;27;20020;-39
2023/04/12 02:01:46;;;;;;;27.50;8.55;;;;;;;;;;5144570;27;20531;-38
2023/04/12 02:04:14;;;;;;;38.55;8.63;;;;;;;;;;5140349;27;20095;-39
2023/04/12 02:06:41;;;;;;;29.85;7.85;;;;;;;;;;5143756;27;20145;-38
2023/04/12 02:09:09;;;;;;;23.70;7.50;;;;;;;;;;5144432;27;20027;-39
2023/04/12 02:11:36;;;;;;;27.60;7.28;;;;;;;;;;5142059;27;20518;-38
2023/04/12 02:14:02;;;;;;;27.55;7.30;;;;;;;;;;5138666;27;20077;-39
2023/04/12 02:16:31;;;;;;;27.20;6.55;;;;;;;;;;5143987;27;20029;-37
2023/04/12 02:18:58;;;;;;;26.30;6.47;;;;;;;;;;5145037;27;20777;-39
2023/04/12 02:21:26;;;;;;;23.80;6.85;;;;;;;;;;5145775;27;20078;-38
2023/04/12 02:23:53;;;;;;;17.73;5.75;;;;;;;;;;5144194;27;20080;-38
2023/04/12 02:26:22;;;;;;;23.48;6.22;;;;;;;;;;5142896;27;20029;-37
2023/04/12 02:28:49;;;;;;;17.75;6.10;;;;;;;;;;5145580;27;20050;-38
2023/04/12 02:31:16;;;;;;;18.58;5.65;;;;;;;;;;5144564;27;20461;-39
2023/04/12 02:33:43;;;;;;;18.42;5.53;;;;;;;;;;5143578;27;20050;-38
2023/04/12 02:36:10;;;;;;;19.13;5.63;;;;;;;;;;5143612;27;20029;-38
2023/04/12 02:38:37;;;;;;;16.83;5.20;;;;;;;;;;5144545;27;20031;-38
2023/04/12 02:41:04;;;;;;;13.95;5.20;;;;;;;;;;5145436;27;20086;-39
2023/04/12 02:43:32;;;;;;;20.58;5.55;;;;;;;;;;5143584;27;20084;-38
2023/04/12 02:45:59;;;;;;;17.90;5.28;;;;;;;;;;5143845;27;20064;-38
2023/04/12 02:48:26;;;;;;;14.55;5.22;;;;;;;;;;5143906;27;20027;-39
2023/04/12 02:50:54;;;;;;;13.82;4.90;;;;;;;;;;5145688;27;20503;-37
2023/04/12 02:53:21;;;;;;;15.32;4.80;;;;;;;;;;5140473;27;20031;-39
2023/04/12 02:55:48;;;;;;;15.50;4.45;;;;;;;;;;5134952;27;20024;-39
2023/04/12 02:58:15;;;;;;;15.07;5.13;;;;;;;;;;5135107;27;20034;-39
2023/04/12 03:00:42;;;;;;;13.75;4.50;;;;;;;;;;5135116;27;20039;-39
2023/04/12 03:03:09;;;;;;;11.38;4.13;;;;;;;;;;5135009;27;20140;-39
2023/04/12 03:05:36;;;;;;;14.93;4.85;;;;;;;;;;5135045;27;20019;-39
2023/04/12 03:08:03;;;;;;;14.63;4.53;;;;;;;;;;5135018;27;20487;-39
2023/04/12 03:10:30;;;;;;;12.13;3.92;;;;;;;;;;5134909;27;20027;-39
2023/04/12 03:12:57;;;;;;;13.35;3.80;;;;;;;;;;5134838;27;20026;-39
2023/04/12 03:15:26;;;;;;;11.15;3.97;;;;;;;;;;5134797;27;20023;-39
2023/04/12 03:17:53;;;;;;;10.57;3.45;;;;;;;;;;5134714;27;20034;-39
2023/04/12 03:20:23;;;;;;;10.68;3.60;;;;;;;;;;5134722;27;20027;-40
2023/04/12 03:22:50;;;;;;;8.50;3.38;;;;;;;;;;5134655;27;20035;-39
2023/04/12 03:25:17;;;;;;;11.63;3.65;;;;;;;;;;5133333;27;20085;-39
2023/04/12 03:27:44;;;;;;;9.85;3.70;;;;;;;;;;5134581;27;20430;-39
2023/04/12 03:30:11;;;;;;;9.77;3.33;;;;;;;;;;5134442;27;20434;-39
2023/04/12 03:32:42;;;;;;;9.45;3.30;;;;;;;;;;5134570;27;20139;-39
2023/04/12 03:35:09;;;;;;;11.63;2.88;;;;;;;;;;5134495;27;20030;-39
2023/04/12 03:37:37;;;;;;;12.05;3.50;;;;;;;;;;5134459;27;20102;-39
2023/04/12 03:40:06;;;;;;;6.95;2.65;;;;;;;;;;5134438;27;20012;-39
2023/04/12 03:42:33;;;;;;;9.73;3.30;;;;;;;;;;5134267;27;20465;-38
2023/04/12 03:45:00;;;;;;;7.68;2.90;;;;;;;;;;5134195;27;20023;-39
2023/04/12 03:47:27;;;;;;;11.13;3.22;;;;;;;;;;5134300;27;20026;-39
2023/04/12 03:50:02;;;;;;;9.88;2.80;;;;;;;;;;5134155;27;20043;-39
2023/04/12 03:52:29;;;;;;;7.05;2.72;;;;;;;;;;5136422;27;20023;-39
2023/04/12 03:54:56;;;;;;;8.00;2.88;;;;;;;;;;5154754;27;20042;-38
2023/04/12 03:57:26;;;;;;;8.95;2.50;;;;;;;;;;5154805;27;20102;-39
2023/04/12 03:59:53;;;;;;;6.70;2.65;;;;;;;;;;5154753;27;20106;-39
2023/04/12 04:02:20;;;;;;;6.95;2.67;;;;;;;;;;5154721;27;20026;-39
2023/04/12 04:04:47;;;;;;;8.82;2.55;;;;;;;;;;5154574;27;20033;-39
2023/04/12 04:07:14;;;;;;;6.57;2.28;;;;;;;;;;5154573;27;20023;-39
2023/04/12 04:09:41;;;;;;;8.50;2.78;;;;;;;;;;5154560;27;20106;-39
2023/04/12 04:12:08;;;;;;;6.68;2.63;;;;;;;;;;5154489;27;20023;-39
2023/04/12 04:14:35;;;;;;;7.72;2.70;;;;;;;;;;5154383;27;20078;-39
2023/04/12 04:17:02;;;;;;;7.25;2.55;;;;;;;;;;5154454;27;20026;-39
2023/04/12 04:19:29;;;;;;;6.70;2.30;;;;;;;;;;5154460;27;20019;-39
2023/04/12 04:21:57;;;;;;;4.78;2.05;;;;;;;;;;5154172;27;20046;-38
2023/04/12 04:24:24;;;;;;;5.95;2.03;;;;;;;;;;5154110;27;20091;-38
2023/04/12 04:26:53;;;;;;;5.72;2.30;;;;;;;;;;5154533;27;20799;-39
2023/04/12 04:29:20;;;;;;;6.20;2.15;;;;;;;;;;5154122;27;20031;-39
2023/04/12 04:31:47;;;;;;;3.95;1.85;;;;;;;;;;5154115;27;20030;-39
2023/04/12 04:34:15;;;;;;;5.40;1.90;;;;;;;;;;5153959;27;20031;-39
2023/04/12 04:36:42;;;;;;;4.60;1.90;;;;;;;;;;5154101;27;20022;-39
2023/04/12 04:39:09;;;;;;;4.05;2.03;;;;;;;;;;5153950;27;20034;-39
2023/04/12 04:41:38;;;;;;;5.18;2.00;;;;;;;;;;5153968;27;20023;-39
2023/04/12 04:44:08;;;;;;;4.25;1.70;;;;;;;;;;5153723;27;20499;-39
2023/04/12 04:46:36;;;;;;;6.47;1.67;;;;;;;;;;5153754;27;20441;-39
2023/04/12 04:49:06;;;;;;;4.60;1.98;;;;;;;;;;5153767;27;20101;-39
2023/04/12 04:51:33;;;;;;;5.32;2.13;;;;;;;;;;5153798;27;20019;-39
2023/04/12 04:54:01;;;;;;;4.15;1.70;;;;;;;;;;5153692;27;20023;-38
2023/04/12 04:56:28;;;;;;;4.75;1.80;;;;;;;;;;5153652;27;20034;-39
2023/04/12 04:58:55;;;;;;;4.90;1.67;;;;;;;;;;5153843;27;20433;-39
2023/04/12 05:01:27;;;;;;;4.82;1.73;;;;;;;;;;5153574;27;20031;-39
2023/04/12 05:03:54;;;;;;;3.70;1.65;;;;;;;;;;5153517;27;20034;-39
2023/04/12 05:06:21;;;;;;;3.60;1.50;;;;;;;;;;5153574;27;20488;-39
2023/04/12 05:08:48;;;;;;;5.25;1.60;;;;;;;;;;5152174;27;20023;-39
2023/04/12 05:11:15;;;;;;;4.05;1.55;;;;;;;;;;5153390;27;20075;-39
2023/04/12 05:13:42;;;;;;;5.22;1.75;;;;;;;;;;5152003;27;20027;-39
2023/04/12 05:16:10;;;;;;;4.60;1.38;;;;;;;;;;5153380;27;20023;-39
2023/04/12 05:18:37;;;;;;;4.55;1.60;;;;;;;;;;5152913;27;20621;-38
2023/04/12 05:21:09;;;;;;;4.60;1.70;;;;;;;;;;5153149;27;20125;-39
2023/04/12 05:23:37;;;;;;;4.95;1.70;;;;;;;;;;5153035;27;20426;-38
2023/04/12 05:26:04;;;;;;;5.80;1.60;;;;;;;;;;5153316;27;20167;-37
2023/04/12 05:28:31;;;;;;;4.60;1.60;;;;;;;;;;5153334;27;20102;-38
2023/04/12 05:30:58;;;;;;;3.55;1.40;;;;;;;;;;5151892;27;20143;-37
2023/04/12 05:33:25;;;;;;;2.97;1.40;;;;;;;;;;5153221;27;20034;-38
2023/04/12 05:35:52;;;;;;;3.28;1.50;;;;;;;;;;5153188;27;20019;-38
2023/04/12 05:38:19;;;;;;;3.33;1.20;;;;;;;;;;5153178;27;20102;-37
2023/04/12 05:40:48;;;;;;;4.18;1.60;;;;;;;;;;5153244;27;20058;-38
2023/04/12 05:43:16;;;;;;;4.50;1.50;;;;;;;;;;5152999;27;20023;-37
2023/04/12 05:45:43;;;;;;;4.60;1.38;;;;;;;;;;5153047;27;20031;-37
2023/04/12 05:48:10;;;;;;;3.35;1.20;;;;;;;;;;5151721;27;20046;-37
2023/04/12 05:50:37;;;;;;;2.97;1.27;;;;;;;;;;5153064;27;20034;-38
2023/04/12 05:53:04;;;;;;;3.50;1.40;;;;;;;;;;5153021;27;20042;-37
2023/04/12 05:55:31;;;;;;;4.47;1.55;;;;;;;;;;5153138;27;20023;-37
2023/04/12 05:57:58;;;;;;;4.88;1.42;;;;;;;;;;5153089;27;20026;-37
2023/04/12 06:00:26;;;;;;;3.80;1.27;;;;;;;;;;5153114;27;20019;-37
2023/04/12 06:02:53;;;;;;;4.13;1.33;;;;;;;;;;5132627;27;20031;-37
2023/04/12 06:05:21;;;;;;;2.92;1.10;;;;;;;;;;5132305;28;20107;-37
2023/04/12 06:07:48;;;;;;;3.88;1.40;;;;;;;;;;5132141;27;20035;-37
2023/04/12 06:10:16;;;;;;;3.08;1.10;;;;;;;;;;5132174;27;20020;-37
2023/04/12 06:12:43;;;;;;;3.22;1.10;;;;;;;;;;5130957;28;20022;-37
2023/04/12 06:15:10;;;;;;;3.95;1.20;;;;;;;;;;5132138;28;20035;-38
2023/04/12 06:17:37;;;;;;;3.13;1.35;;;;;;;;;;5130776;28;20083;-38
2023/04/12 06:20:08;;;;;;;1.48;0.90;;;;;;;;;;5132136;28;20020;-38
2023/04/12 06:22:36;;;;;;;5.13;1.33;;;;;;;;;;5132054;27;20500;-38
2023/04/12 06:25:04;;;;;;;1.85;0.98;;;;;;;;;;5132007;28;20019;-38
2023/04/12 06:27:31;;;;;;;4.72;1.40;;;;;;;;;;5132057;27;20026;-37
2023/04/12 06:29:58;;;;;;;3.13;1.25;;;;;;;;;;5133041;27;20031;-39
2023/04/12 06:32:25;;;;;;;2.42;1.05;;;;;;;;;;5135580;27;20023;-40
2023/04/12 06:34:52;;;;;;;4.07;1.20;;;;;;;;;;5135747;27;20084;-39
2023/04/12 06:37:19;;;;;;;3.47;1.40;;;;;;;;;;5135592;27;20093;-39
2023/04/12 06:39:46;;;;;;;3.45;1.25;;;;;;;;;;5135641;27;20043;-39
2023/04/12 06:42:13;;;;;;;4.10;1.25;;;;;;;;;;5135834;27;20027;-39
2023/04/12 06:44:40;;;;;;;2.30;1.10;;;;;;;;;;5135361;27;20027;-39
2023/04/12 06:47:08;;;;;;;4.50;1.20;;;;;;;;;;5135477;27;20016;-38
2023/04/12 06:49:35;;;;;;;3.92;0.95;;;;;;;;;;5133963;27;20035;-38
2023/04/12 06:52:02;;;;;;;3.47;1.27;;;;;;;;;;5135373;27;20034;-37
2023/04/12 06:54:29;;;;;;;2.67;1.20;;;;;;;;;;5135282;27;20393;-38
2023/04/12 06:56:56;;;;;;;3.40;1.20;;;;;;;;;;5135407;27;20477;-37
2023/04/12 06:59:23;;;;;;;3.28;1.00;;;;;;;;;;5135293;27;20069;-37
2023/04/12 07:01:50;;;;;;;3.67;1.15;;;;;;;;;;5135150;27;20033;-38
2023/04/12 07:04:17;;;;;;;2.63;1.00;;;;;;;;;;5135137;27;20058;-37
2023/04/12 07:06:45;;;;;;;3.40;1.25;;;;;;;;;;5135103;27;20103;-37
2023/04/12 07:09:11;;;;;;;4.43;1.48;;;;;;;;;;5134981;27;20405;-37
2023/04/12 07:11:38;;;;;;;3.67;1.00;;;;;;;;;;5134905;27;20049;-37
2023/04/12 07:14:05;;;;;;;3.00;1.13;;;;;;;;;;5134882;27;20042;-37
2023/04/12 07:16:32;;;;;;;1.67;0.80;;;;;;;;;;5135112;27;20050;-37
2023/04/12 07:19:00;;;;;;;2.92;1.02;;;;;;;;;;5134912;27;20027;-38
2023/04/12 07:21:27;;;;;;;3.20;0.90;;;;;;;;;;5134699;27;20071;-37
2023/04/12 07:23:55;;;;;;;3.83;1.30;;;;;;;;;;5134711;27;20024;-37
2023/04/12 07:26:22;;;;;;;3.85;1.20;;;;;;;;;;5134662;27;20027;-38
2023/04/12 07:28:49;;;;;;;2.72;1.17;;;;;;;;;;5134627;27;20023;-37
2023/04/12 07:31:16;;;;;;;2.92;1.10;;;;;;;;;;5134576;27;20501;-37
2023/04/12 07:33:44;;;;;;;3.13;1.05;;;;;;;;;;5134488;27;20038;-37
2023/04/12 07:36:11;;;;;;;3.70;1.08;;;;;;;;;;5134577;27;20023;-38
2023/04/12 07:38:38;;;;;;;3.38;1.20;;;;;;;;;;5134460;27;20493;-37
2023/04/12 07:41:05;;;;;;;4.50;1.00;;;;;;;;;;5134094;27;20076;-37
2023/04/12 07:43:32;;;;;;;3.80;1.20;;;;;;;;;;5134375;27;20174;-38
2023/04/12 07:46:03;;;;;;;3.22;1.10;;;;;;;;;;5134273;27;20034;-38
2023/04/12 07:48:30;;;;;;;3.55;1.20;;;;;;;;;;5134197;27;20015;-38
2023/04/12 07:50:57;;;;;;;2.70;1.00;;;;;;;;;;5134200;27;20023;-38
2023/04/12 07:53:28;;;;;;;3.63;1.10;;;;;;;;;;5134096;27;20098;-38
2023/04/12 07:55:56;;;;;;;2.53;1.08;;;;;;;;;;5134164;27;20023;-38
2023/04/12 07:58:23;;;;;;;2.60;1.00;;;;;;;;;;5134351;27;20484;-38
2023/04/12 08:00:51;;;;;;;2.38;0.80;;;;;;;;;;5134021;27;20030;-39
2023/04/12 08:03:18;;;;;;;2.42;0.95;;;;;;;;;;5133916;27;20015;-39
2023/04/12 08:05:48;;;;;;;2.20;1.00;;;;;;;;;;5134023;27;20046;-38
2023/04/12 08:08:15;;;;;;;2.92;1.38;;;;;;;;;;5133893;27;20087;-38
2023/04/12 08:10:42;;;;;;;2.85;1.08;;;;;;;;;;5133783;27;20116;-38
2023/04/12 08:13:09;;;;;;;2.88;1.35;;;;;;;;;;5133696;27;20481;-38
2023/04/12 08:15:36;;;;;;;5.13;1.35;;;;;;;;;;5133763;27;20019;-38
2023/04/12 08:18:03;;;;;;;3.95;1.40;;;;;;;;;;5133873;27;20421;-39
2023/04/12 08:20:30;;;;;;;3.25;1.38;;;;;;;;;;5133483;27;20050;-39
2023/04/12 08:22:57;;;;;;;3.10;1.00;;;;;;;;;;5133466;27;20031;-38
2023/04/12 08:25:24;;;;;;;3.10;0.98;;;;;;;;;;5133546;27;20023;-38
2023/04/12 08:27:51;;;;;;;3.20;1.08;;;;;;;;;;5133474;27;20023;-39
2023/04/12 08:30:19;;;;;;;2.20;1.08;;;;;;;;;;5133386;27;20023;-38
2023/04/12 08:32:46;;;;;;;4.10;1.00;;;;;;;;;;5133231;27;20031;-38
2023/04/12 08:35:15;;;;;;;3.33;1.00;;;;;;;;;;5133343;27;20106;-38
2023/04/12 08:37:42;;;;;;;3.58;1.00;;;;;;;;;;5133255;27;20042;-39
2023/04/12 08:40:09;;;;;;;2.05;0.75;;;;;;;;;;5133262;27;20472;-39
2023/04/12 08:42:36;;;;;;;3.53;0.90;;;;;;;;;;5132969;27;20434;-38
2023/04/12 08:45:07;;;;;;;3.75;1.20;;;;;;;;;;5133202;27;20489;-38
2023/04/12 08:47:34;;;;;;;2.92;1.10;;;;;;;;;;5133029;27;20035;-37
2023/04/12 08:50:02;;;;;;;3.50;1.08;;;;;;;;;;5133284;27;20058;-37
2023/04/12 08:52:29;;;;;;;2.80;1.02;;;;;;;;;;5132207;27;20040;-37
2023/04/12 08:54:56;;;;;;;2.70;1.00;;;;;;;;;;5133146;27;20504;-37
2023/04/12 08:57:23;;;;;;;1.65;0.80;;;;;;;;;;5132929;27;20583;-37
2023/04/12 08:59:52;;;;;;;2.75;0.93;;;;;;;;;;5133001;27;20027;-37
2023/04/12 09:02:19;;;;;;;3.58;1.00;;;;;;;;;;5132940;27;20027;-38
2023/04/12 09:04:51;;;;;;;3.17;0.98;;;;;;;;;;5132863;27;20019;-37
2023/04/12 09:07:18;;;;;;;2.75;0.90;;;;;;;;;;5132645;27;20108;-37
2023/04/12 09:09:46;;;;;;;1.98;0.80;;;;;;;;;;5132861;27;20034;-37
2023/04/12 09:12:14;;;;;;;3.67;1.00;;;;;;;;;;5132713;27;20060;-37
2023/04/12 09:14:44;;;;;;;2.55;0.90;;;;;;;;;;5132907;27;20046;-37
2023/04/12 09:17:24;;;;;;;2.70;0.90;;;;;;;;;;5132690;27;20231;-37
2023/04/12 09:19:52;;;;;;;2.47;0.93;;;;;;;;;;5132624;27;20102;-37
2023/04/12 09:22:19;;;;;;;2.83;0.90;;;;;;;;;;5136736;27;20096;-38
2023/04/12 09:24:51;;;;;;;3.53;0.85;;;;;;;;;;5148926;27;20055;-38
2023/04/12 09:27:21;;;;;;;3.50;1.08;;;;;;;;;;5153034;27;20026;-37
2023/04/12 09:29:51;;;;;;;3.08;0.98;;;;;;;;;;5149747;27;20015;-38
2023/04/12 09:32:28;;;;;;;4.13;1.17;;;;;;;;;;5141704;27;20524;-38
2023/04/12 09:35:04;;;;;;;3.65;1.50;;;;;;;;;;5142344;27;20023;-39
2023/04/12 09:37:31;;;;;;;5.05;1.92;;;;;;;;;;5141398;27;20043;-39
2023/04/12 09:40:03;;;;;;;11.90;2.03;;;;;;;;;;5148436;27;20461;-37
2023/04/12 09:42:31;;;;;;;3.40;1.70;;;;;;;;;;5143210;27;20050;-37
2023/04/12 09:44:58;;;;;;;4.55;2.00;;;;;;;;;;5148636;27;20022;-38
2023/04/12 09:47:38;;;;;;;6.20;1.60;;;;;;;;;;5132046;27;20035;-37
2023/04/12 09:50:06;;;;;;;5.82;1.80;;;;;;;;;;5132347;28;20027;-37
2023/04/12 09:52:37;;;;;;;6.28;1.83;;;;;;;;;;5132348;27;20033;-37
2023/04/12 09:55:09;;;;;;;6.20;1.90;;;;;;;;;;5132358;28;20050;-37
2023/04/12 09:57:42;;;;;;;4.40;1.97;;;;;;;;;;5132269;28;20020;-37
2023/04/12 10:00:16;;;;;;;10.15;2.15;;;;;;;;;;5132242;28;20026;-38
2023/04/12 10:02:44;;;;;;;4.63;1.65;;;;;;;;;;5132280;27;20030;-38
2023/04/12 10:05:15;;;;;;;3.35;1.73;;;;;;;;;;5141648;27;20062;-38
2023/04/12 10:07:43;;;;;;;5.72;1.88;;;;;;;;;;5156964;27;20011;-38
2023/04/12 10:10:14;;;;;;;5.20;2.17;;;;;;;;;;5156898;27;20027;-38
2023/04/12 10:12:42;;;;;;;6.82;2.13;;;;;;;;;;5156933;27;20041;-38
2023/04/12 10:15:15;;;;;;;5.03;1.67;;;;;;;;;;5156981;27;20022;-38
2023/04/12 10:17:52;;;;;;;6.40;2.10;;;;;;;;;;5156658;27;20026;-37
2023/04/12 10:20:20;;;;;;;5.03;1.92;;;;;;;;;;5156606;27;20396;-37
2023/04/12 10:22:48;;;;;;;5.03;1.98;;;;;;;;;;5156065;27;20095;-38
2023/04/12 10:25:19;;;;;;;3.63;1.90;;;;;;;;;;5156626;27;20022;-37
2023/04/12 10:27:46;;;;;;;7.60;1.80;;;;;;;;;;5156556;27;20018;-37
2023/04/12 10:30:21;;;;;;;4.28;1.75;;;;;;;;;;5156513;27;20098;-37
2023/04/12 10:32:49;;;;;;;8.05;2.42;;;;;;;;;;5156398;27;20030;-37
2023/04/12 10:35:16;;;;;;;5.90;1.80;;;;;;;;;;5156540;27;20029;-37
2023/04/12 10:38:01;;;;;;;5.72;1.58;;;;;;;;;;5156367;27;20094;-37
2023/04/12 10:40:30;;;;;;;5.88;2.00;;;;;;;;;;5156358;27;20019;-37
2023/04/12 10:43:15;;;;;;;6.55;2.33;;;;;;;;;;5156557;27;20027;-37
2023/04/12 10:45:42;;;;;;;6.35;2.10;;;;;;;;;;5156213;27;20115;-38
2023/04/12 10:48:29;;;;;;;5.38;1.85;;;;;;;;;;5156219;27;20019;-38
2023/04/12 10:51:22;;;;;;;4.30;1.70;;;;;;;;;;5156009;27;20080;-37
2023/04/12 10:53:49;;;;;;;5.15;1.92;;;;;;;;;;5156075;27;20499;-37
2023/04/12 10:56:32;;;;;;;4.80;1.90;;;;;;;;;;5156131;27;20015;-38
2023/04/12 10:58:59;;;;;;;8.07;1.90;;;;;;;;;;5156067;27;20034;-37
2023/04/12 11:01:27;;;;;;;5.35;1.58;;;;;;;;;;5145720;27;20039;-38
2023/04/12 11:04:12;;;;;;;4.45;1.90;;;;;;;;;;5135202;27;20072;-38
2023/04/12 11:06:58;;;;;;;5.22;1.60;;;;;;;;;;5138288;27;20057;-38
2023/04/12 11:09:26;;;;;;;5.10;1.70;;;;;;;;;;5144956;27;20537;-38
2023/04/12 11:12:05;;;;;;;5.05;1.90;;;;;;;;;;5143544;27;20047;-38
2023/04/12 11:14:36;;;;;;;4.53;1.80;;;;;;;;;;5143986;27;20122;-38
2023/04/12 11:17:06;;;;;;;4.85;1.85;;;;;;;;;;5144791;27;20031;-37
2023/04/12 11:19:34;;;;;;;5.72;1.83;;;;;;;;;;5143414;27;20504;-38
2023/04/12 11:22:01;;;;;;;5.75;1.90;;;;;;;;;;5151675;27;20051;-38
2023/04/12 11:24:28;;;;;;;5.40;2.10;;;;;;;;;;5152845;27;20035;-38
2023/04/12 11:26:56;;;;;;;9.07;2.35;;;;;;;;;;5144375;27;20038;-37
2023/04/12 11:29:27;;;;;;;5.70;1.77;;;;;;;;;;5144781;27;20019;-38
2023/04/12 11:31:54;;;;;;;7.03;1.83;;;;;;;;;;5144558;27;20456;-37
2023/04/12 11:34:22;;;;;;;4.40;1.92;;;;;;;;;;5144528;27;20022;-38
2023/04/12 11:36:52;;;;;;;4.70;1.85;;;;;;;;;;5133862;27;20035;-38
2023/04/12 11:39:20;;;;;;;7.57;1.67;;;;;;;;;;5134391;27;20515;-38
2023/04/12 11:41:48;;;;;;;5.25;1.63;;;;;;;;;;5147226;27;20023;-38
2023/04/12 11:44:20;;;;;;;6.20;1.75;;;;;;;;;;5155080;27;20058;-37
2023/04/12 11:46:47;;;;;;;7.93;1.77;;;;;;;;;;5154830;27;20495;-37
2023/04/12 11:49:18;;;;;;;8.93;1.83;;;;;;;;;;5155053;27;20044;-37
2023/04/12 11:51:45;;;;;;;5.22;1.88;;;;;;;;;;5154889;27;20042;-37
2023/04/12 11:54:12;;;;;;;6.75;2.10;;;;;;;;;;5154962;27;20031;-36
2023/04/12 11:56:40;;;;;;;7.35;1.77;;;;;;;;;;5154910;27;20118;-37
2023/04/12 11:59:07;;;;;;;9.02;2.03;;;;;;;;;;5154693;27;20492;-37
2023/04/12 12:01:37;;;;;;;6.32;2.00;;;;;;;;;;5154778;27;20393;-37
2023/04/12 12:04:04;;;;;;;10.82;1.88;;;;;;;;;;5154248;27;20503;-38
2023/04/12 12:06:31;;;;;;;7.82;1.95;;;;;;;;;;5154468;27;20128;-38
2023/04/12 12:08:59;;;;;;;7.82;2.25;;;;;;;;;;5154478;27;20384;-38
2023/04/12 12:11:26;;;;;;;6.10;1.90;;;;;;;;;;5154470;27;20023;-38
2023/04/12 12:13:54;;;;;;;7.95;2.03;;;;;;;;;;5154494;27;20407;-38
2023/04/12 12:16:28;;;;;;;6.72;1.60;;;;;;;;;;5154438;27;20035;-38
2023/04/12 12:18:55;;;;;;;5.88;2.20;;;;;;;;;;5154380;27;20027;-38
2023/04/12 12:21:22;;;;;;;4.53;1.52;;;;;;;;;;5154188;27;20045;-38
2023/04/12 12:23:49;;;;;;;7.10;1.40;;;;;;;;;;5152870;27;20400;-38
2023/04/12 12:26:24;;;;;;;6.13;1.70;;;;;;;;;;5152648;27;20106;-37
2023/04/12 12:28:51;;;;;;;6.60;2.00;;;;;;;;;;5153105;27;20041;-39
2023/04/12 12:31:20;;;;;;;17.83;1.90;;;;;;;;;;5153968;27;20037;-38
2023/04/12 12:33:47;;;;;;;5.88;1.70;;;;;;;;;;5154104;27;20500;-38
2023/04/12 12:36:19;;;;;;;7.25;1.98;;;;;;;;;;5138759;27;20023;-37
2023/04/12 12:38:47;;;;;;;8.32;2.47;;;;;;;;;;5133256;27;20035;-37
2023/04/12 12:41:18;;;;;;;8.90;2.10;;;;;;;;;;5132838;27;20091;-37
2023/04/12 12:43:49;;;;;;;10.27;1.88;;;;;;;;;;5133295;27;20059;-37
2023/04/12 12:46:19;;;;;;;7.28;1.67;;;;;;;;;;5133046;27;20028;-37
2023/04/12 12:48:46;;;;;;;10.80;2.05;;;;;;;;;;5133244;27;20043;-37
2023/04/12 12:51:19;;;;;;;7.28;2.00;;;;;;;;;;5133113;27;20515;-37
2023/04/12 12:53:47;;;;;;;11.70;2.08;;;;;;;;;;5132975;27;20464;-38
2023/04/12 12:56:14;;;;;;;12.50;2.08;;;;;;;;;;5132983;27;20034;-37
2023/04/12 12:58:41;;;;;;;6.57;1.60;;;;;;;;;;5131632;27;20150;-37
2023/04/12 13:01:08;;;;;;;9.68;2.78;;;;;;;;;;5132906;27;20427;-37
2023/04/12 13:03:35;;;;;;;7.82;2.13;;;;;;;;;;5130860;27;20099;-37
2023/04/12 13:06:02;;;;;;;8.90;2.67;;;;;;;;;;5131070;27;20854;-39
2023/04/12 13:08:34;;;;;;;7.30;2.50;;;;;;;;;;5152987;27;20054;-41
2023/04/12 13:11:01;;;;;;;12.10;2.80;;;;;;;;;;5152230;27;20061;-38
2023/04/12 13:13:28;;;;;;;16.75;2.72;;;;;;;;;;5153268;27;20106;-37
2023/04/12 13:15:55;;;;;;;12.10;2.90;;;;;;;;;;5153003;27;20023;-38
2023/04/12 13:18:22;;;;;;;10.88;3.08;;;;;;;;;;5152886;27;20031;-41
2023/04/12 13:20:49;;;;;;;9.13;2.72;;;;;;;;;;5151503;27;20066;-40
2023/04/12 13:23:16;;;;;;;10.00;2.65;;;;;;;;;;5152498;27;20361;-39
2023/04/12 13:25:43;;;;;;;7.28;2.50;;;;;;;;;;5152359;27;20114;-38
2023/04/12 13:28:11;;;;;;;9.63;3.40;;;;;;;;;;5152222;27;20392;-39
2023/04/12 13:30:38;;;;;;;11.93;2.42;;;;;;;;;;5150630;27;20046;-39
2023/04/12 13:33:05;;;;;;;14.55;2.92;;;;;;;;;;5152522;27;20053;-40
2023/04/12 13:35:32;;;;;;;11.23;2.60;;;;;;;;;;5152350;27;20030;-38
2023/04/12 13:37:59;;;;;;;10.38;2.67;;;;;;;;;;5152619;27;20113;-39
2023/04/12 13:40:26;;;;;;;10.48;2.58;;;;;;;;;;5156461;27;20018;-37
2023/04/12 13:42:53;;;;;;;12.32;2.90;;;;;;;;;;5155824;27;20023;-39
2023/04/12 13:45:20;;;;;;;12.23;2.67;;;;;;;;;;5157325;27;20058;-39
2023/04/12 13:47:47;;;;;;;10.38;3.17;;;;;;;;;;5156971;27;20306;-39
2023/04/12 13:50:14;;;;;;;14.40;3.00;;;;;;;;;;5157304;27;20023;-39
2023/04/12 13:52:41;;;;;;;9.30;2.85;;;;;;;;;;5155595;27;20027;-40
2023/04/12 13:55:08;;;;;;;12.38;2.67;;;;;;;;;;5156782;27;20135;-41
2023/04/12 13:57:35;;;;;;;10.00;2.55;;;;;;;;;;5156660;27;20114;-39
2023/04/12 14:00:02;;;;;;;7.97;2.80;;;;;;;;;;5157298;27;20030;-38
2023/04/12 14:02:29;;;;;;;7.47;2.85;;;;;;;;;;5155563;27;20568;-39
2023/04/12 14:04:56;;;;;;;9.73;2.70;;;;;;;;;;5156364;27;20026;-39
2023/04/12 14:07:23;;;;;;;9.98;2.65;;;;;;;;;;5156182;27;20046;-39
2023/04/12 14:09:50;;;;;;;7.68;2.63;;;;;;;;;;5155762;27;20034;-39
2023/04/12 14:12:17;;;;;;;13.02;2.60;;;;;;;;;;5155735;27;20564;-40
2023/04/12 14:14:44;;;;;;;14.10;2.78;;;;;;;;;;5153062;27;20034;-39
2023/04/12 14:17:11;;;;;;;7.15;2.78;;;;;;;;;;5155728;27;20443;-40
2023/04/12 14:19:38;;;;;;;11.23;3.00;;;;;;;;;;5156156;27;20101;-40
2023/04/12 14:22:05;;;;;;;8.57;2.35;;;;;;;;;;5156278;27;20070;-39
2023/04/12 14:24:32;;;;;;;12.98;2.92;;;;;;;;;;5155310;27;20045;-39
2023/04/12 14:27:08;;;;;;;6.75;2.38;;;;;;;;;;5156216;27;20110;-39
2023/04/12 14:29:38;;;;;;;9.65;2.63;;;;;;;;;;5152849;27;20023;-39
2023/04/12 14:32:05;;;;;;;10.48;2.17;;;;;;;;;;5155465;27;20037;-39
2023/04/12 14:34:33;;;;;;;13.00;2.50;;;;;;;;;;5154032;27;20503;-39
2023/04/12 14:37:00;;;;;;;16.20;2.70;;;;;;;;;;5154906;27;20039;-39
2023/04/12 14:39:27;;;;;;;11.38;2.38;;;;;;;;;;5156057;27;20029;-39
2023/04/12 14:41:55;;;;;;;12.13;2.53;;;;;;;;;;5156202;27;20469;-39
2023/04/12 14:44:22;;;;;;;11.32;2.20;;;;;;;;;;5156111;27;20027;-39